George Airport
FAGG : now visible

Airfield :











YOU CAN JOIN US ON...

 
LOGIN :

Register | Disclaimer

   EN    FR    IT 

 









Legend :    VFR   Marginal VFR   IFR   Intensive IFR   Very Intensive IFR
Visi :
Ceiling :
>= 8 km
>= 3000ft
5 to 8 km
1000 to 3000 ft
1500m to 5 km
500 to 1000 ft
800 to 1500m
200 to 500 ft
< 800m
< 200 ft
Symbols :   Thunderstorms  Fog  Heavy snow  Heavy precipitations  Wind > 20 kt







- Airport Elevation : 648 ft
- IATA code : GRJ


FAGG - George

CURRENT METAR :
  • 210100Z AUTO 18003KT 9999 FEW028/// OVC036/// 18/16 Q1019

EXPIRED METARs :
  • 210000Z AUTO 00000KT 9999 FEW030/// BKN042/// 17/15 Q1019
  • 202300Z AUTO 33004KT 9999 FEW026/// 17/15 Q1020

TAF TAF FAGG
Valid from the 21 at 00:00 until the 22 at 00:00 UTC


202200Z 2100/2124 VRB02KT 9999 BKN015 TX25/2112Z TN17/2104Z
TEMPO 2100/2104 BKN003
FM210600 16008KT 9999 SCT030
PROB30
TEMPO 2118/2124 2000 BR BKN003
FACA FIR / Africa



MET'MAP, your aeronautical weather chart ! - Copyright ORBIFLY December 2007 - Disclaimer

ORBIFLY MET'MAP TEAM :

Programming & Development : Alexandra Zaïnal
Concept & Development : Baudouin d'Aumeries
Co-Development & Prog : Marc-Olivier Méhu
Technical & hardware support : Manuel Goepfert

Contact : metmap@orbifly.com




SOURCES & CREDITS :

   NOAA       Earth
Advisory